Time;durP1;ratioP1;P1;durP2;ratioP2;P2;SDS_P1;SDS_P2;PMS_P1;PMS_P2;Temp;Humidity;BMP_temperature;BMP_pressure;BME280_temperature;BME280_humidity;BME280_pressure;Samples;Min_cycle;Max_cycle;Signal;HPM_P1;HPM_P2
2020/12/01 00:01:51;;;;;;;28.77;15.35;;;;;;;;;;5072485;28;20388;-73
2020/12/01 00:04:17;;;;;;;31.15;16.90;;;;;;;;;;5072411;28;20018;-73
2020/12/01 00:06:43;;;;;;;27.27;14.85;;;;;;;;;;5072297;28;20094;-74
2020/12/01 00:09:09;;;;;;;27.73;15.00;;;;;;;;;;5072400;28;20023;-74
2020/12/01 00:11:35;;;;;;;28.17;15.05;;;;;;;;;;5072220;28;20025;-74
2020/12/01 00:14:02;;;;;;;27.38;15.20;;;;;;;;;;5072252;28;20024;-74
2020/12/01 00:16:28;;;;;;;24.85;13.27;;;;;;;;;;5072076;28;20054;-80
2020/12/01 00:18:54;;;;;;;25.80;12.50;;;;;;;;;;5070872;28;20032;-73
2020/12/01 00:21:20;;;;;;;28.13;14.05;;;;;;;;;;5072455;28;20029;-73
2020/12/01 00:23:47;;;;;;;27.00;15.13;;;;;;;;;;5072290;28;20025;-73
2020/12/01 00:26:17;;;;;;;29.02;14.50;;;;;;;;;;5072241;28;20029;-73
2020/12/01 00:28:43;;;;;;;27.42;13.77;;;;;;;;;;5072089;28;20533;-73
2020/12/01 00:31:09;;;;;;;28.45;14.57;;;;;;;;;;5072175;28;20020;-74
2020/12/01 00:33:35;;;;;;;29.10;15.55;;;;;;;;;;5071960;28;20036;-81
2020/12/01 00:36:01;;;;;;;30.02;15.80;;;;;;;;;;5071995;28;20019;-73
2020/12/01 00:38:27;;;;;;;28.90;14.88;;;;;;;;;;5071982;28;20020;-81
2020/12/01 00:40:53;;;;;;;30.10;16.63;;;;;;;;;;5072360;28;20032;-73
2020/12/01 00:43:20;;;;;;;28.73;14.93;;;;;;;;;;5074812;28;20024;-73
2020/12/01 00:45:46;;;;;;;27.42;14.65;;;;;;;;;;5075987;28;20024;-76
2020/12/01 00:48:13;;;;;;;26.55;14.88;;;;;;;;;;5074415;28;20028;-79
2020/12/01 00:50:39;;;;;;;27.30;15.05;;;;;;;;;;5075635;28;20082;-77
2020/12/01 00:53:05;;;;;;;27.50;15.07;;;;;;;;;;5075528;28;20056;-74
2020/12/01 00:55:31;;;;;;;27.48;15.52;;;;;;;;;;5075547;28;20021;-81
2020/12/01 00:57:57;;;;;;;30.88;13.38;;;;;;;;;;5075267;28;20384;-79
2020/12/01 01:00:25;;;;;;;32.15;16.08;;;;;;;;;;5075349;28;20468;-79
2020/12/01 01:02:51;;;;;;;31.42;16.25;;;;;;;;;;5075393;28;20028;-74
2020/12/01 01:05:17;;;;;;;29.23;15.30;;;;;;;;;;5074178;28;20031;-74
2020/12/01 01:07:43;;;;;;;34.28;15.48;;;;;;;;;;5075320;28;20066;-74
2020/12/01 01:10:15;;;;;;;30.60;16.23;;;;;;;;;;5075271;28;20105;-74
2020/12/01 01:12:41;;;;;;;32.90;16.67;;;;;;;;;;5075210;28;20017;-74
2020/12/01 01:15:07;;;;;;;31.92;17.17;;;;;;;;;;5073962;28;20115;-74
2020/12/01 01:17:33;;;;;;;29.55;14.75;;;;;;;;;;5075268;28;20024;-80
2020/12/01 01:19:59;;;;;;;31.67;17.20;;;;;;;;;;5075123;28;20090;-82
2020/12/01 01:22:25;;;;;;;32.65;16.63;;;;;;;;;;5073738;28;20025;-74
2020/12/01 01:24:51;;;;;;;28.35;15.65;;;;;;;;;;5074984;28;20027;-73
2020/12/01 01:27:17;;;;;;;31.88;17.55;;;;;;;;;;5075176;28;20021;-75
2020/12/01 01:29:43;;;;;;;35.22;18.02;;;;;;;;;;5074762;28;20500;-82
2020/12/01 01:32:09;;;;;;;34.67;17.92;;;;;;;;;;5074897;28;20020;-75
2020/12/01 01:34:35;;;;;;;31.10;16.13;;;;;;;;;;5074977;28;20387;-81
2020/12/01 01:37:03;;;;;;;31.55;16.80;;;;;;;;;;5074853;28;20021;-76
2020/12/01 01:39:29;;;;;;;34.90;17.20;;;;;;;;;;5073338;28;20044;-74
2020/12/01 01:41:55;;;;;;;35.55;17.75;;;;;;;;;;5074677;28;20443;-76
2020/12/01 01:44:24;;;;;;;31.95;16.58;;;;;;;;;;5074669;28;20537;-73
2020/12/01 01:46:54;;;;;;;35.17;18.08;;;;;;;;;;5074658;28;20048;-74
2020/12/01 01:49:22;;;;;;;31.50;16.73;;;;;;;;;;5073422;28;20380;-73
2020/12/01 01:51:51;;;;;;;31.20;16.30;;;;;;;;;;5074277;28;20067;-82
2020/12/01 01:54:18;;;;;;;30.88;16.60;;;;;;;;;;5074629;28;20476;-74
2020/12/01 01:56:45;;;;;;;31.48;17.20;;;;;;;;;;5074498;28;20025;-74
2020/12/01 01:59:13;;;;;;;30.38;16.50;;;;;;;;;;5073539;28;20469;-74
2020/12/01 02:01:39;;;;;;;27.92;13.07;;;;;;;;;;5073068;28;20448;-78
2020/12/01 02:04:07;;;;;;;31.25;15.95;;;;;;;;;;5074266;28;20020;-74
2020/12/01 02:06:36;;;;;;;28.75;15.93;;;;;;;;;;5074336;28;20036;-74
2020/12/01 02:09:06;;;;;;;29.30;15.43;;;;;;;;;;5072959;28;20027;-74
2020/12/01 02:11:33;;;;;;;34.78;17.15;;;;;;;;;;5074248;28;20078;-74
2020/12/01 02:14:14;;;;;;;30.15;16.05;;;;;;;;;;5074191;28;20049;-75
2020/12/01 02:16:42;;;;;;;29.27;15.10;;;;;;;;;;5073943;28;20128;-74
2020/12/01 02:19:10;;;;;;;31.38;15.68;;;;;;;;;;5074029;28;20491;-82
2020/12/01 02:21:40;;;;;;;28.48;16.00;;;;;;;;;;5074046;28;20108;-82
2020/12/01 02:24:11;;;;;;;26.50;15.13;;;;;;;;;;5074189;28;20036;-82
2020/12/01 02:26:38;;;;;;;27.65;14.85;;;;;;;;;;5074004;28;20425;-74
2020/12/01 02:29:11;;;;;;;27.65;14.57;;;;;;;;;;5074064;28;20040;-74
2020/12/01 02:31:37;;;;;;;27.35;14.23;;;;;;;;;;5073925;28;20031;-74
2020/12/01 02:34:07;;;;;;;27.23;13.80;;;;;;;;;;5073774;28;20034;-74
2020/12/01 02:36:33;;;;;;;25.63;14.20;;;;;;;;;;5073727;28;20404;-74
2020/12/01 02:38:59;;;;;;;22.48;13.43;;;;;;;;;;5073528;28;20032;-78
2020/12/01 02:41:25;;;;;;;22.45;12.75;;;;;;;;;;5073683;28;20059;-82
2020/12/01 02:43:52;;;;;;;23.63;13.05;;;;;;;;;;5073524;28;20023;-80
2020/12/01 02:46:19;;;;;;;24.65;13.02;;;;;;;;;;5073764;28;20021;-74
2020/12/01 02:48:45;;;;;;;26.77;14.00;;;;;;;;;;5073463;28;20027;-74
2020/12/01 02:51:11;;;;;;;21.70;12.52;;;;;;;;;;5073236;28;20031;-77
2020/12/01 02:53:37;;;;;;;25.95;12.20;;;;;;;;;;5073361;28;20020;-73
2020/12/01 02:56:03;;;;;;;24.20;13.50;;;;;;;;;;5073248;28;20028;-74
2020/12/01 02:58:29;;;;;;;26.13;13.98;;;;;;;;;;5072923;28;20052;-80
2020/12/01 03:00:55;;;;;;;24.95;13.10;;;;;;;;;;5073275;28;20025;-77
2020/12/01 03:03:21;;;;;;;25.70;13.77;;;;;;;;;;5071328;28;20020;-73
2020/12/01 03:05:47;;;;;;;23.50;12.75;;;;;;;;;;5073066;28;20516;-73
2020/12/01 03:08:13;;;;;;;22.63;13.13;;;;;;;;;;5073126;28;20035;-81
2020/12/01 03:10:39;;;;;;;24.38;13.23;;;;;;;;;;5071735;28;20042;-81
2020/12/01 03:13:05;;;;;;;23.40;13.10;;;;;;;;;;5073082;28;20036;-74
2020/12/01 03:15:31;;;;;;;24.30;13.55;;;;;;;;;;5071490;28;20032;-74
2020/12/01 03:17:57;;;;;;;23.42;12.45;;;;;;;;;;5071617;28;20111;-78
2020/12/01 03:20:23;;;;;;;24.63;14.02;;;;;;;;;;5072834;28;20060;-73
2020/12/01 03:22:49;;;;;;;22.55;12.65;;;;;;;;;;5072885;28;20023;-75
2020/12/01 03:25:15;;;;;;;21.95;12.70;;;;;;;;;;5072880;28;20028;-73
2020/12/01 03:27:41;;;;;;;30.70;12.50;;;;;;;;;;5072704;28;20023;-73
2020/12/01 03:30:08;;;;;;;22.25;12.23;;;;;;;;;;5072678;28;20024;-74
2020/12/01 03:32:34;;;;;;;22.08;12.60;;;;;;;;;;5072673;28;20032;-82
2020/12/01 03:35:00;;;;;;;20.90;12.40;;;;;;;;;;5071315;28;20028;-75
2020/12/01 03:37:26;;;;;;;21.25;12.20;;;;;;;;;;5071317;28;20024;-79
2020/12/01 03:39:52;;;;;;;21.80;11.85;;;;;;;;;;5072374;28;20396;-74
2020/12/01 03:42:18;;;;;;;23.90;12.13;;;;;;;;;;5072913;28;20020;-74
2020/12/01 03:44:45;;;;;;;26.00;12.07;;;;;;;;;;5072737;28;20029;-73
2020/12/01 03:47:11;;;;;;;20.50;12.20;;;;;;;;;;5072494;28;20017;-74
2020/12/01 03:49:39;;;;;;;21.00;11.60;;;;;;;;;;5071180;28;20016;-73
2020/12/01 03:52:05;;;;;;;22.15;12.68;;;;;;;;;;5072348;28;20020;-78
2020/12/01 03:54:31;;;;;;;23.80;11.80;;;;;;;;;;5072357;28;20048;-74
2020/12/01 03:56:57;;;;;;;22.50;11.88;;;;;;;;;;5070986;28;20032;-82
2020/12/01 03:59:23;;;;;;;20.52;11.77;;;;;;;;;;5072044;28;20049;-80
2020/12/01 04:01:52;;;;;;;21.38;12.43;;;;;;;;;;5071852;28;20020;-75
2020/12/01 04:04:18;;;;;;;21.67;12.23;;;;;;;;;;5072468;28;20473;-73
2020/12/01 04:06:44;;;;;;;21.95;12.55;;;;;;;;;;5072323;28;20028;-74
2020/12/01 04:09:10;;;;;;;23.45;13.05;;;;;;;;;;5072308;28;20472;-74
2020/12/01 04:11:36;;;;;;;22.50;12.18;;;;;;;;;;5072217;28;20025;-79
2020/12/01 04:14:02;;;;;;;22.25;12.43;;;;;;;;;;5072262;28;20024;-81
2020/12/01 04:16:28;;;;;;;22.98;12.93;;;;;;;;;;5074751;28;20020;-81
2020/12/01 04:18:54;;;;;;;27.60;13.23;;;;;;;;;;5076074;28;20027;-79
2020/12/01 04:21:20;;;;;;;23.92;11.93;;;;;;;;;;5076262;28;20036;-77
2020/12/01 04:23:51;;;;;;;22.75;12.80;;;;;;;;;;5076263;28;20032;-81
2020/12/01 04:26:18;;;;;;;22.98;12.63;;;;;;;;;;5076519;28;20025;-80
2020/12/01 04:28:44;;;;;;;22.15;11.77;;;;;;;;;;5074723;28;20047;-81
2020/12/01 04:31:10;;;;;;;20.15;11.63;;;;;;;;;;5074514;28;20036;-81
2020/12/01 04:33:36;;;;;;;22.67;12.63;;;;;;;;;;5075969;28;20047;-81
2020/12/01 04:36:02;;;;;;;19.80;11.48;;;;;;;;;;5075968;28;20036;-81
2020/12/01 04:38:28;;;;;;;20.60;11.77;;;;;;;;;;5075705;28;20492;-81
2020/12/01 04:40:54;;;;;;;22.17;12.13;;;;;;;;;;5075753;28;20526;-81
2020/12/01 04:43:23;;;;;;;21.52;11.68;;;;;;;;;;5075492;28;20380;-77
2020/12/01 04:45:51;;;;;;;21.48;12.48;;;;;;;;;;5075427;28;20020;-78
2020/12/01 04:48:24;;;;;;;22.95;12.55;;;;;;;;;;5075743;28;20404;-76
2020/12/01 04:50:53;;;;;;;27.25;13.85;;;;;;;;;;5075752;28;20078;-75
2020/12/01 04:53:54;;;;;;;22.05;12.70;;;;;;;;;;5075762;28;20029;-81
2020/12/01 04:56:24;;;;;;;24.85;11.23;;;;;;;;;;5033233;28;20469;-75
2020/12/01 04:58:53;;;;;;;19.73;11.25;;;;;;;;;;5063906;28;20157;-73
2020/12/01 05:01:35;;;;;;;25.00;11.90;;;;;;;;;;5073532;28;20028;-78
2020/12/01 05:04:19;;;;;;;22.85;13.10;;;;;;;;;;5074918;28;20029;-78
2020/12/01 05:07:03;;;;;;;19.30;11.65;;;;;;;;;;5075458;28;20032;-81
2020/12/01 05:09:39;;;;;;;23.00;12.63;;;;;;;;;;5075275;28;20052;-81
2020/12/01 05:12:10;;;;;;;20.90;11.32;;;;;;;;;;5074852;28;20029;-82
2020/12/01 05:14:42;;;;;;;24.20;11.10;;;;;;;;;;5074987;28;20551;-81
2020/12/01 05:17:26;;;;;;;21.73;13.02;;;;;;;;;;5074940;28;20059;-83
2020/12/01 05:19:52;;;;;;;22.65;12.50;;;;;;;;;;5074553;28;20032;-74
2020/12/01 05:22:19;;;;;;;23.90;13.05;;;;;;;;;;5074178;28;20028;-74
2020/12/01 05:24:47;;;;;;;20.83;11.55;;;;;;;;;;5074022;28;20468;-75
2020/12/01 05:27:22;;;;;;;22.00;12.48;;;;;;;;;;5073634;28;20103;-75
2020/12/01 05:29:56;;;;;;;19.90;11.13;;;;;;;;;;5075217;28;20056;-74
2020/12/01 05:32:30;;;;;;;24.48;12.05;;;;;;;;;;5074944;28;20047;-74
2020/12/01 05:35:06;;;;;;;20.92;11.60;;;;;;;;;;5074894;28;20036;-74
2020/12/01 05:37:32;;;;;;;23.67;11.55;;;;;;;;;;5074758;28;20077;-76
2020/12/01 05:40:04;;;;;;;18.95;11.40;;;;;;;;;;5074692;28;20397;-75
2020/12/01 05:42:30;;;;;;;21.70;11.35;;;;;;;;;;5074754;28;20056;-75
2020/12/01 05:44:57;;;;;;;23.00;11.93;;;;;;;;;;5074677;28;20032;-74
2020/12/01 05:47:27;;;;;;;19.90;11.43;;;;;;;;;;5074699;28;20020;-74
2020/12/01 05:50:08;;;;;;;19.90;11.02;;;;;;;;;;5074360;28;20029;-75
2020/12/01 05:52:43;;;;;;;23.05;11.93;;;;;;;;;;5074530;28;20024;-74
2020/12/01 05:55:17;;;;;;;19.58;10.45;;;;;;;;;;5074615;28;20025;-74
2020/12/01 05:57:43;;;;;;;16.23;9.38;;;;;;;;;;5074344;28;20086;-75
2020/12/01 06:00:21;;;;;;;18.70;10.80;;;;;;;;;;5074286;28;20037;-74
2020/12/01 06:02:59;;;;;;;18.33;10.90;;;;;;;;;;5074488;28;20032;-82
2020/12/01 06:05:26;;;;;;;18.08;10.57;;;;;;;;;;5074318;28;20024;-74
2020/12/01 06:07:53;;;;;;;18.38;11.07;;;;;;;;;;5074522;28;20019;-73
2020/12/01 06:10:43;;;;;;;21.95;11.98;;;;;;;;;;5074343;28;20027;-74
2020/12/01 06:13:18;;;;;;;18.85;11.07;;;;;;;;;;5068692;28;20064;-80
2020/12/01 06:15:53;;;;;;;21.52;10.55;;;;;;;;;;5073883;28;20024;-80
2020/12/01 06:18:26;;;;;;;22.70;12.07;;;;;;;;;;5074277;28;20108;-75
2020/12/01 06:20:57;;;;;;;18.92;11.65;;;;;;;;;;5086096;28;20068;-74
2020/12/01 06:23:23;;;;;;;22.27;12.80;;;;;;;;;;5094043;28;20027;-74
2020/12/01 06:26:07;;;;;;;19.70;11.13;;;;;;;;;;5094354;28;20024;-75
2020/12/01 06:28:33;;;;;;;22.02;12.15;;;;;;;;;;5093934;28;20422;-80
2020/12/01 06:31:11;;;;;;;19.85;11.15;;;;;;;;;;5094071;28;20503;-74
2020/12/01 06:33:56;;;;;;;18.70;10.85;;;;;;;;;;5094090;28;20051;-80
2020/12/01 06:36:48;;;;;;;18.48;10.73;;;;;;;;;;5070552;28;20067;-76
2020/12/01 06:39:17;;;;;;;19.30;10.18;;;;;;;;;;5071183;28;20040;-73
2020/12/01 06:41:49;;;;;;;21.50;11.50;;;;;;;;;;5070917;28;20060;-73
2020/12/01 06:44:19;;;;;;;19.35;11.40;;;;;;;;;;5070597;28;20036;-75
2020/12/01 06:46:47;;;;;;;19.75;10.48;;;;;;;;;;5070795;28;20025;-83
2020/12/01 06:49:19;;;;;;;18.50;10.40;;;;;;;;;;5071132;28;20028;-74
2020/12/01 06:51:50;;;;;;;20.13;11.32;;;;;;;;;;5070907;28;20028;-74
2020/12/01 06:54:17;;;;;;;18.88;10.45;;;;;;;;;;5070886;28;20070;-74
2020/12/01 06:56:54;;;;;;;18.23;10.82;;;;;;;;;;5070703;28;20035;-78
2020/12/01 06:59:20;;;;;;;20.05;11.10;;;;;;;;;;5070208;28;20522;-74
2020/12/01 07:01:46;;;;;;;19.50;10.90;;;;;;;;;;5070775;28;20442;-73
2020/12/01 07:04:15;;;;;;;19.13;10.80;;;;;;;;;;5070692;28;20062;-74
2020/12/01 07:06:46;;;;;;;18.13;9.80;;;;;;;;;;5070507;28;20403;-75
2020/12/01 07:09:15;;;;;;;19.20;10.82;;;;;;;;;;5070767;28;20042;-74
2020/12/01 07:11:52;;;;;;;17.70;10.38;;;;;;;;;;5069289;28;20024;-74
2020/12/01 07:14:21;;;;;;;17.20;9.38;;;;;;;;;;5073001;28;20025;-80
2020/12/01 07:16:49;;;;;;;16.40;9.93;;;;;;;;;;5072888;28;20027;-77
2020/12/01 07:19:15;;;;;;;21.08;11.73;;;;;;;;;;5073040;28;20025;-73
2020/12/01 07:21:44;;;;;;;19.48;10.60;;;;;;;;;;5072977;28;20021;-74
2020/12/01 07:24:16;;;;;;;21.35;12.43;;;;;;;;;;5072957;28;20028;-74
2020/12/01 07:26:50;;;;;;;17.13;9.82;;;;;;;;;;5072833;28;20380;-73
2020/12/01 07:29:29;;;;;;;17.63;10.57;;;;;;;;;;5073063;28;20029;-74
2020/12/01 07:32:06;;;;;;;17.20;9.18;;;;;;;;;;5071559;28;20024;-75
2020/12/01 07:34:33;;;;;;;20.52;11.13;;;;;;;;;;5072656;28;20035;-74
2020/12/01 07:37:17;;;;;;;19.88;11.75;;;;;;;;;;5072701;28;20032;-76
2020/12/01 07:39:55;;;;;;;19.15;10.93;;;;;;;;;;5071331;28;20086;-81
2020/12/01 07:42:22;;;;;;;19.35;10.80;;;;;;;;;;5072667;28;20107;-74
2020/12/01 07:44:48;;;;;;;18.40;10.90;;;;;;;;;;5072833;28;20052;-74
2020/12/01 07:47:14;;;;;;;20.25;11.23;;;;;;;;;;5072860;28;20029;-74
2020/12/01 07:49:41;;;;;;;18.55;10.77;;;;;;;;;;5072404;28;20028;-74
2020/12/01 07:52:07;;;;;;;18.92;10.20;;;;;;;;;;5072556;28;20032;-74
2020/12/01 07:54:35;;;;;;;17.83;10.07;;;;;;;;;;5072476;28;20078;-79
2020/12/01 07:57:10;;;;;;;20.85;11.93;;;;;;;;;;5072685;28;20025;-73
2020/12/01 07:59:40;;;;;;;18.52;11.13;;;;;;;;;;5072253;28;20041;-74
2020/12/01 08:02:07;;;;;;;25.38;13.82;;;;;;;;;;5072684;28;20048;-74
2020/12/01 08:04:33;;;;;;;27.15;14.38;;;;;;;;;;5072403;28;20468;-74
2020/12/01 08:07:04;;;;;;;20.88;10.85;;;;;;;;;;5072471;28;20111;-77
2020/12/01 08:09:30;;;;;;;18.95;11.02;;;;;;;;;;5072669;28;20035;-74
2020/12/01 08:12:00;;;;;;;21.38;11.85;;;;;;;;;;5072405;28;20027;-74
2020/12/01 08:14:26;;;;;;;19.17;10.82;;;;;;;;;;5072230;28;20031;-75
2020/12/01 08:17:16;;;;;;;19.85;10.50;;;;;;;;;;5072148;28;20023;-82
2020/12/01 08:19:42;;;;;;;21.80;11.85;;;;;;;;;;5064343;28;20058;-74
2020/12/01 08:22:09;;;;;;;22.17;11.98;;;;;;;;;;5072192;28;20028;-78
2020/12/01 08:24:37;;;;;;;21.92;11.82;;;;;;;;;;5072099;28;20108;-77
2020/12/01 08:27:07;;;;;;;20.80;11.90;;;;;;;;;;5072516;28;20024;-77
2020/12/01 08:29:36;;;;;;;22.73;12.27;;;;;;;;;;5072489;28;20103;-82
2020/12/01 08:32:24;;;;;;;23.00;11.85;;;;;;;;;;5072155;28;20032;-73
2020/12/01 08:34:54;;;;;;;20.55;12.25;;;;;;;;;;5072181;28;20029;-75
2020/12/01 08:37:38;;;;;;;22.02;11.90;;;;;;;;;;5072155;28;20021;-74
2020/12/01 08:40:11;;;;;;;20.63;11.88;;;;;;;;;;5072055;28;20036;-73
2020/12/01 08:42:45;;;;;;;22.08;11.88;;;;;;;;;;5071951;28;20013;-74
2020/12/01 08:45:10;;;;;;;;;;;;;;;;;;5072431;28;20021;-74
2020/12/01 08:47:37;;;;;;;21.27;11.55;;;;;;;;;;5072065;28;19987;-78
2020/12/01 08:50:13;;;;;;;21.25;11.93;;;;;;;;;;5072050;28;20495;-82
2020/12/01 08:52:42;;;;;;;23.60;12.68;;;;;;;;;;5071822;28;20074;-77
2020/12/01 08:55:23;;;;;;;21.23;12.18;;;;;;;;;;5071984;28;20016;-81
2020/12/01 08:58:00;;;;;;;21.00;11.95;;;;;;;;;;5071873;28;20464;-79
2020/12/01 09:00:26;;;;;;;21.65;11.73;;;;;;;;;;5071949;28;20519;-77
2020/12/01 09:02:53;;;;;;;21.63;11.77;;;;;;;;;;5073800;28;20021;-75
2020/12/01 09:05:28;;;;;;;23.15;12.13;;;;;;;;;;5075758;28;20024;-74
2020/12/01 09:11:12;;;;;;;26.58;14.70;;;;;;;;;;5075911;28;20032;-75
2020/12/01 09:13:42;;;;;;;23.98;13.15;;;;;;;;;;5053102;28;20100;-73
2020/12/01 09:16:39;;;;;;;24.52;13.35;;;;;;;;;;5055397;28;20021;-73
2020/12/01 09:22:15;;;;;;;26.10;14.02;;;;;;;;;;5055337;28;20039;-75
2020/12/01 09:24:41;;;;;;;25.13;13.32;;;;;;;;;;5055178;28;20036;-74
2020/12/01 09:27:14;;;;;;;25.52;14.77;;;;;;;;;;5061619;28;20384;-74
2020/12/01 09:29:45;;;;;;;24.87;13.93;;;;;;;;;;5074010;28;20175;-73
2020/12/01 09:32:15;;;;;;;25.05;13.95;;;;;;;;;;5075149;28;20032;-73
2020/12/01 09:34:41;;;;;;;25.98;13.38;;;;;;;;;;5075045;28;20464;-73
2020/12/01 09:37:07;;;;;;;27.77;14.05;;;;;;;;;;5075271;28;20032;-72
2020/12/01 09:39:33;;;;;;;30.70;14.43;;;;;;;;;;5074980;28;20047;-73
2020/12/01 09:42:36;;;;;;;28.48;14.20;;;;;;;;;;5074958;28;20457;-78
2020/12/01 09:45:16;;;;;;;29.60;15.65;;;;;;;;;;5073508;28;20028;-73
2020/12/01 09:47:46;;;;;;;31.38;16.73;;;;;;;;;;5074774;28;20021;-74
2020/12/01 09:50:15;;;;;;;32.30;17.00;;;;;;;;;;5074934;28;20021;-73
2020/12/01 09:55:55;;;;;;;35.85;18.25;;;;;;;;;;5063560;28;20533;-72
2020/12/01 10:35:56;;;;;;;25.23;13.35;;;;;;;;;;5051704;28;20094;-72
2020/12/01 10:38:22;;;;;;;25.50;13.07;;;;;;;;;;5050067;28;20025;-71
2020/12/01 10:40:48;;;;;;;26.00;13.73;;;;;;;;;;5051204;28;20041;-72
2020/12/01 10:43:14;;;;;;;25.30;14.35;;;;;;;;;;5051229;28;20021;-76
2020/12/01 10:45:40;;;;;;;24.92;12.48;;;;;;;;;;5050858;28;20083;-72
2020/12/01 10:48:06;;;;;;;25.48;12.85;;;;;;;;;;5050889;28;20028;-76
2020/12/01 10:50:32;;;;;;;25.42;12.27;;;;;;;;;;5070173;28;20025;-71
2020/12/01 10:52:59;;;;;;;30.52;14.55;;;;;;;;;;5070497;28;20024;-72
2020/12/01 10:55:29;;;;;;;25.98;13.10;;;;;;;;;;5064293;28;20021;-74
2020/12/01 10:57:55;;;;;;;24.45;13.82;;;;;;;;;;5049423;28;20834;-72
2020/12/01 11:00:23;;;;;;;27.85;13.02;;;;;;;;;;5050958;28;20127;-76
2020/12/01 11:02:49;;;;;;;25.73;13.90;;;;;;;;;;5050991;28;20031;-72
2020/12/01 11:05:17;;;;;;;25.33;13.35;;;;;;;;;;5050791;28;20025;-72
2020/12/01 11:07:43;;;;;;;26.08;13.45;;;;;;;;;;5050519;28;20048;-71
2020/12/01 11:10:09;;;;;;;28.27;14.52;;;;;;;;;;5050688;28;20037;-71
2020/12/01 11:12:35;;;;;;;27.95;14.30;;;;;;;;;;5050604;28;20029;-71
2020/12/01 11:15:01;;;;;;;27.25;13.93;;;;;;;;;;5050547;28;20040;-71
2020/12/01 11:17:27;;;;;;;23.42;12.90;;;;;;;;;;5050665;28;20040;-71
2020/12/01 11:19:53;;;;;;;24.35;13.10;;;;;;;;;;5050721;28;20499;-71
2020/12/01 11:22:19;;;;;;;25.75;12.63;;;;;;;;;;5070593;28;20033;-72
2020/12/01 11:24:45;;;;;;;26.45;12.20;;;;;;;;;;5069722;28;20472;-72
2020/12/01 11:27:11;;;;;;;22.02;11.57;;;;;;;;;;5070237;28;20035;-72
2020/12/01 11:29:37;;;;;;;20.13;11.43;;;;;;;;;;5068942;28;20031;-73
2020/12/01 11:32:04;;;;;;;23.50;12.55;;;;;;;;;;5069776;28;20033;-72
2020/12/01 11:34:30;;;;;;;18.52;10.32;;;;;;;;;;5070146;28;20037;-72
2020/12/01 11:36:56;;;;;;;20.80;11.13;;;;;;;;;;5070217;28;20157;-72
2020/12/01 11:39:22;;;;;;;21.55;11.05;;;;;;;;;;5069918;28;20037;-75
2020/12/01 11:41:49;;;;;;;21.83;11.60;;;;;;;;;;5070410;28;20468;-72
2020/12/01 11:44:15;;;;;;;20.45;11.23;;;;;;;;;;5069933;28;20460;-73
2020/12/01 11:46:42;;;;;;;23.55;12.13;;;;;;;;;;5070014;28;20039;-72
2020/12/01 11:49:08;;;;;;;21.10;11.52;;;;;;;;;;5069983;28;20440;-72
2020/12/01 11:51:35;;;;;;;19.02;11.10;;;;;;;;;;5070021;28;20024;-71
2020/12/01 11:54:01;;;;;;;19.08;11.55;;;;;;;;;;5069978;28;20013;-72
2020/12/01 11:56:28;;;;;;;21.92;11.68;;;;;;;;;;5069725;28;20032;-77
2020/12/01 11:58:54;;;;;;;19.30;10.10;;;;;;;;;;5069731;28;20053;-72
2020/12/01 12:01:20;;;;;;;18.52;9.52;;;;;;;;;;5069722;28;20061;-76
2020/12/01 12:03:46;;;;;;;18.17;10.57;;;;;;;;;;5054999;28;20029;-71
2020/12/01 12:06:12;;;;;;;22.90;11.48;;;;;;;;;;5050080;28;20035;-72
2020/12/01 12:08:39;;;;;;;19.13;10.15;;;;;;;;;;5049595;28;20033;-71
2020/12/01 12:11:05;;;;;;;20.00;10.70;;;;;;;;;;5049789;28;20401;-71
2020/12/01 12:13:31;;;;;;;18.63;9.75;;;;;;;;;;5049746;28;20059;-71
2020/12/01 12:15:57;;;;;;;16.52;9.32;;;;;;;;;;5049016;28;20036;-72
2020/12/01 12:18:24;;;;;;;19.27;10.48;;;;;;;;;;5067469;28;20025;-71
2020/12/01 12:20:50;;;;;;;18.63;9.82;;;;;;;;;;5067145;28;20114;-78
2020/12/01 12:23:16;;;;;;;19.10;9.75;;;;;;;;;;5069554;28;20029;-75
2020/12/01 12:25:43;;;;;;;19.70;9.75;;;;;;;;;;5069643;28;20032;-72
2020/12/01 12:28:09;;;;;;;18.33;10.27;;;;;;;;;;5069672;28;20017;-79
2020/12/01 12:30:35;;;;;;;18.58;10.02;;;;;;;;;;5069773;28;20028;-72
2020/12/01 12:33:01;;;;;;;20.77;10.52;;;;;;;;;;5069303;28;20024;-73
2020/12/01 12:35:27;;;;;;;19.02;9.95;;;;;;;;;;5069706;28;20048;-72
2020/12/01 12:37:53;;;;;;;19.10;10.38;;;;;;;;;;5073347;28;20028;-76
2020/12/01 12:40:19;;;;;;;20.27;10.18;;;;;;;;;;5073625;28;20036;-73
2020/12/01 12:42:45;;;;;;;17.67;9.93;;;;;;;;;;5073427;28;20028;-72
2020/12/01 12:45:12;;;;;;;18.35;9.65;;;;;;;;;;5071804;28;20031;-73
2020/12/01 12:47:38;;;;;;;18.25;9.70;;;;;;;;;;5073399;28;20033;-76
2020/12/01 12:50:05;;;;;;;20.75;10.43;;;;;;;;;;5072950;28;20476;-74
2020/12/01 12:52:31;;;;;;;19.02;10.32;;;;;;;;;;5073283;28;20103;-74
2020/12/01 12:54:57;;;;;;;21.05;11.27;;;;;;;;;;5072115;28;20029;-73
2020/12/01 12:57:23;;;;;;;20.20;10.98;;;;;;;;;;5071646;28;20506;-76
2020/12/01 12:59:49;;;;;;;21.45;10.70;;;;;;;;;;5072984;28;20492;-78
2020/12/01 13:02:15;;;;;;;18.05;10.45;;;;;;;;;;5072640;28;20036;-72
2020/12/01 13:04:41;;;;;;;21.75;11.30;;;;;;;;;;5053046;28;20052;-73
2020/12/01 13:07:07;;;;;;;18.02;10.05;;;;;;;;;;5058071;28;20377;-72
2020/12/01 13:09:33;;;;;;;20.27;10.50;;;;;;;;;;5072221;28;20035;-72
2020/12/01 13:11:59;;;;;;;19.67;10.75;;;;;;;;;;5072782;28;20060;-76
2020/12/01 13:14:26;;;;;;;17.63;9.63;;;;;;;;;;5072971;28;20024;-73
2020/12/01 13:16:53;;;;;;;20.38;10.50;;;;;;;;;;5072841;28;20107;-73
2020/12/01 13:19:19;;;;;;;26.10;11.98;;;;;;;;;;5072874;28;20107;-72
2020/12/01 13:21:46;;;;;;;25.40;12.85;;;;;;;;;;5072702;28;20380;-72
2020/12/01 13:24:12;;;;;;;20.23;11.27;;;;;;;;;;5072528;28;20028;-74
2020/12/01 13:26:38;;;;;;;22.50;11.27;;;;;;;;;;5072048;28;20121;-72
2020/12/01 13:29:05;;;;;;;23.17;12.30;;;;;;;;;;5071258;28;20025;-73
2020/12/01 13:31:31;;;;;;;22.40;10.70;;;;;;;;;;5072557;28;20120;-74
2020/12/01 13:33:58;;;;;;;21.30;11.60;;;;;;;;;;5072108;28;20032;-74
2020/12/01 13:36:25;;;;;;;19.98;10.45;;;;;;;;;;5072358;28;20078;-74
2020/12/01 13:38:51;;;;;;;18.67;9.18;;;;;;;;;;5072528;28;20472;-81
2020/12/01 13:41:17;;;;;;;21.73;10.82;;;;;;;;;;5072719;28;20033;-73
2020/12/01 13:43:43;;;;;;;20.73;11.40;;;;;;;;;;5072012;28;20021;-79
2020/12/01 13:46:09;;;;;;;21.38;11.30;;;;;;;;;;5072385;28;20020;-73
2020/12/01 13:48:36;;;;;;;20.90;11.25;;;;;;;;;;5071361;28;20020;-73
2020/12/01 13:51:02;;;;;;;22.52;11.45;;;;;;;;;;5072226;28;20021;-80
2020/12/01 13:53:28;;;;;;;18.30;10.63;;;;;;;;;;5072013;28;20056;-72
2020/12/01 13:55:55;;;;;;;21.92;10.98;;;;;;;;;;5071669;28;20051;-73
2020/12/01 13:58:21;;;;;;;21.13;10.73;;;;;;;;;;5071893;28;20226;-73
2020/12/01 14:00:47;;;;;;;22.73;11.52;;;;;;;;;;5071924;28;20500;-73
2020/12/01 14:03:13;;;;;;;19.92;11.45;;;;;;;;;;5070647;28;20028;-73
2020/12/01 14:05:40;;;;;;;19.50;10.07;;;;;;;;;;5071978;28;20025;-73
2020/12/01 14:08:06;;;;;;;19.30;10.15;;;;;;;;;;5071568;28;20028;-73
2020/12/01 14:10:33;;;;;;;23.42;11.15;;;;;;;;;;5071738;28;20024;-77
2020/12/01 14:13:00;;;;;;;23.02;12.07;;;;;;;;;;5071496;28;20496;-72
2020/12/01 14:15:26;;;;;;;25.08;13.18;;;;;;;;;;5071482;28;20033;-73
2020/12/01 14:17:52;;;;;;;21.55;12.57;;;;;;;;;;5071577;28;20028;-73
2020/12/01 14:20:19;;;;;;;23.80;11.88;;;;;;;;;;5071336;28;20040;-72
2020/12/01 14:22:45;;;;;;;23.98;12.80;;;;;;;;;;5071621;28;20024;-74
2020/12/01 14:25:12;;;;;;;24.17;12.18;;;;;;;;;;5070244;28;20075;-72
2020/12/01 14:27:39;;;;;;;26.95;13.52;;;;;;;;;;5071439;28;20035;-73
2020/12/01 14:30:06;;;;;;;31.92;14.52;;;;;;;;;;5071579;28;20027;-72
2020/12/01 14:32:32;;;;;;;24.77;12.88;;;;;;;;;;5069831;28;20028;-72
2020/12/01 14:34:58;;;;;;;24.42;12.80;;;;;;;;;;5071218;28;20028;-73
2020/12/01 14:37:25;;;;;;;23.13;12.60;;;;;;;;;;5071149;28;20553;-73
2020/12/01 14:39:51;;;;;;;22.20;11.95;;;;;;;;;;5070975;28;20043;-78
2020/12/01 14:42:19;;;;;;;22.98;12.45;;;;;;;;;;5071300;28;20392;-72
2020/12/01 14:44:45;;;;;;;18.13;10.70;;;;;;;;;;5070741;28;20439;-72
2020/12/01 14:47:30;;;;;;;21.63;11.57;;;;;;;;;;5069510;28;20052;-73
2020/12/01 14:50:28;;;;;;;20.88;11.80;;;;;;;;;;5070881;28;20028;-73
2020/12/01 14:53:14;;;;;;;22.27;11.82;;;;;;;;;;5037611;28;20427;-73
2020/12/01 14:55:52;;;;;;;22.65;11.80;;;;;;;;;;5070911;28;20025;-73
2020/12/01 14:58:21;;;;;;;23.73;11.95;;;;;;;;;;5070940;28;20079;-72
2020/12/01 15:00:54;;;;;;;21.05;11.25;;;;;;;;;;5068472;28;20032;-77
2020/12/01 15:03:32;;;;;;;19.42;11.27;;;;;;;;;;5070651;28;20024;-74
2020/12/01 15:06:01;;;;;;;20.67;11.05;;;;;;;;;;5069440;28;20388;-75
2020/12/01 15:08:46;;;;;;;19.33;10.60;;;;;;;;;;5070388;28;20028;-77
2020/12/01 15:11:25;;;;;;;23.00;11.45;;;;;;;;;;5069244;28;20078;-76
2020/12/01 15:13:51;;;;;;;21.88;12.32;;;;;;;;;;5070490;28;20028;-75
2020/12/01 15:16:23;;;;;;;22.88;11.60;;;;;;;;;;5070781;28;20025;-74